Time;durP1;ratioP1;P1;durP2;ratioP2;P2;SDS_P1;SDS_P2;PMS_P1;PMS_P2;Temp;Humidity;BMP_temperature;BMP_pressure;BME280_temperature;BME280_humidity;BME280_pressure;Samples;Min_cycle;Max_cycle;Signal;HPM_P1;HPM_P2
2023/05/23 00:01:41;;;;;;;41.10;17.45;;;13.40;99.90;;;;;;5072565;28;20065;-60
2023/05/23 00:04:08;;;;;;;40.65;16.52;;;13.40;99.90;;;;;;5054976;28;20075;-58
2023/05/23 00:06:37;;;;;;;36.80;15.55;;;13.40;99.90;;;;;;5061412;28;20065;-58
2023/05/23 00:09:03;;;;;;;45.20;16.90;;;13.40;99.90;;;;;;5086791;28;20032;-59
2023/05/23 00:11:29;;;;;;;37.97;16.98;;;13.40;99.90;;;;;;5073004;28;20055;-58
2023/05/23 00:13:59;;;;;;;42.33;15.85;;;13.40;99.90;;;;;;5056731;28;20058;-59
2023/05/23 00:16:25;;;;;;;35.17;13.82;;;13.40;99.90;;;;;;5065312;28;20052;-59
2023/05/23 00:18:52;;;;;;;34.22;13.98;;;13.40;99.90;;;;;;5056199;28;20043;-60
2023/05/23 00:21:19;;;;;;;36.00;14.57;;;13.30;99.90;;;;;;5069215;28;20044;-58
2023/05/23 00:23:49;;;;;;;38.55;14.10;;;13.30;99.90;;;;;;5084250;28;20048;-60
2023/05/23 00:26:14;;;;;;;32.97;14.30;;;13.30;99.90;;;;;;5071600;28;20054;-60
2023/05/23 00:28:40;;;;;;;34.58;13.65;;;13.20;99.90;;;;;;5059337;28;20036;-60
2023/05/23 00:31:08;;;;;;;36.05;13.45;;;13.20;99.90;;;;;;5087063;28;20086;-60
2023/05/23 00:33:35;;;;;;;32.83;13.38;;;13.10;99.90;;;;;;5058880;28;20514;-60
2023/05/23 00:36:00;;;;;;;30.33;12.77;;;13.10;99.90;;;;;;5047449;28;20115;-61
2023/05/23 00:38:27;;;;;;;26.33;12.27;;;13.10;99.90;;;;;;5077701;28;20165;-61
2023/05/23 00:40:53;;;;;;;34.20;13.48;;;13.10;99.90;;;;;;5081771;28;20040;-60
2023/05/23 00:43:20;;;;;;;29.50;11.55;;;13.10;99.90;;;;;;5065951;28;20517;-60
2023/05/23 00:45:47;;;;;;;29.95;12.05;;;13.10;99.90;;;;;;5070886;28;20487;-60
2023/05/23 00:48:13;;;;;;;22.83;11.68;;;13.10;99.90;;;;;;5063566;28;20040;-60
2023/05/23 00:50:40;;;;;;;27.75;11.65;;;13.10;99.90;;;;;;5087288;28;20063;-60
2023/05/23 00:53:06;;;;;;;28.63;12.00;;;13.10;99.90;;;;;;5070372;28;20036;-60
2023/05/23 00:55:32;;;;;;;24.88;11.70;;;13.10;99.90;;;;;;5069510;28;20051;-60
2023/05/23 00:57:58;;;;;;;31.13;12.40;;;13.00;99.90;;;;;;5033673;28;20394;-60
2023/05/23 01:00:24;;;;;;;27.45;11.85;;;13.00;99.90;;;;;;5067512;28;20118;-60
2023/05/23 01:02:52;;;;;;;30.63;12.48;;;13.10;99.90;;;;;;5063125;28;20052;-60
2023/05/23 01:05:21;;;;;;;28.63;12.85;;;13.10;99.90;;;;;;5063662;28;20119;-60
2023/05/23 01:07:48;;;;;;;28.35;12.90;;;13.00;99.90;;;;;;5045017;28;20036;-61
2023/05/23 01:10:16;;;;;;;26.15;12.43;;;13.00;99.90;;;;;;5054126;28;20063;-60
2023/05/23 01:12:57;;;;;;;28.23;12.80;;;12.90;99.90;;;;;;5064802;28;20076;-60
2023/05/23 01:15:36;;;;;;;23.85;12.45;;;12.80;99.90;;;;;;5084787;28;20051;-60
2023/05/23 01:18:03;;;;;;;32.25;12.13;;;12.90;99.90;;;;;;5086737;28;20039;-60
2023/05/23 01:20:44;;;;;;;24.02;12.57;;;12.90;99.90;;;;;;5082205;28;20055;-60
2023/05/23 01:23:54;;;;;;;33.38;12.82;;;12.90;99.90;;;;;;5062359;28;20120;-60
2023/05/23 01:26:53;;;;;;;34.72;12.75;;;12.90;99.90;;;;;;5015371;28;20048;-60
2023/05/23 01:29:27;;;;;;;27.88;11.30;;;12.90;99.90;;;;;;5084156;28;20060;-61
2023/05/23 01:31:56;;;;;;;33.03;11.57;;;12.90;99.90;;;;;;5079883;28;20036;-61
2023/05/23 01:34:22;;;;;;;32.30;12.25;;;12.90;99.90;;;;;;5077269;28;20040;-60
2023/05/23 01:36:54;;;;;;;35.38;11.63;;;12.90;99.90;;;;;;5071583;28;20375;-61
2023/05/23 01:39:23;;;;;;;26.73;10.50;;;12.80;99.90;;;;;;5088300;28;20036;-61
2023/05/23 01:41:51;;;;;;;27.70;10.13;;;12.80;99.90;;;;;;5084791;28;20044;-60
2023/05/23 01:44:20;;;;;;;23.30;10.00;;;12.80;99.90;;;;;;5087734;28;20040;-60
2023/05/23 01:46:49;;;;;;;30.10;13.05;;;12.80;99.90;;;;;;5084954;28;20051;-60
2023/05/23 01:49:17;;;;;;;21.90;9.18;;;12.80;99.90;;;;;;5068119;28;20035;-60
2023/05/23 01:51:42;;;;;;;20.83;8.80;;;12.80;99.90;;;;;;5066098;28;20044;-60
2023/05/23 01:54:08;;;;;;;21.00;9.45;;;12.90;99.90;;;;;;5068418;28;20059;-60
2023/05/23 01:56:35;;;;;;;23.13;9.10;;;12.80;99.90;;;;;;5065380;28;20123;-59
2023/05/23 01:59:01;;;;;;;29.08;9.63;;;12.80;99.90;;;;;;5064761;28;20048;-61
2023/05/23 02:01:29;;;;;;;20.63;9.77;;;12.80;99.90;;;;;;5067428;28;20135;-60
2023/05/23 02:03:55;;;;;;;23.35;9.23;;;12.90;99.90;;;;;;5086891;28;20376;-61
2023/05/23 02:06:21;;;;;;;21.05;8.60;;;12.80;99.90;;;;;;5086845;28;20097;-61
2023/05/23 02:08:47;;;;;;;25.83;9.38;;;12.80;99.90;;;;;;5085940;28;20569;-60
2023/05/23 02:11:13;;;;;;;24.60;8.65;;;12.80;99.90;;;;;;5081714;28;20039;-60
2023/05/23 02:13:39;;;;;;;26.35;8.38;;;12.80;99.90;;;;;;5080135;28;20451;-61
2023/05/23 02:16:05;;;;;;;20.20;9.93;;;12.80;99.90;;;;;;5078561;28;20102;-60
2023/05/23 02:18:30;;;;;;;28.10;9.45;;;12.90;99.90;;;;;;5066668;28;20058;-60
2023/05/23 02:20:56;;;;;;;30.20;8.38;;;12.80;99.90;;;;;;5052914;28;20051;-60
2023/05/23 02:23:22;;;;;;;19.05;8.50;;;12.80;99.90;;;;;;5085967;28;20032;-60
2023/05/23 02:25:47;;;;;;;28.48;9.40;;;12.80;99.90;;;;;;5050714;28;20032;-60
2023/05/23 02:28:13;;;;;;;22.75;9.10;;;12.80;99.90;;;;;;5064654;28;20119;-60
2023/05/23 02:30:39;;;;;;;27.50;9.30;;;12.80;99.90;;;;;;5082161;28;20033;-60
2023/05/23 02:33:06;;;;;;;27.88;10.20;;;12.70;99.90;;;;;;5062984;28;20127;-59
2023/05/23 02:35:33;;;;;;;27.13;9.48;;;12.70;99.90;;;;;;5060964;28;20040;-60
2023/05/23 02:37:59;;;;;;;22.40;8.70;;;12.70;99.90;;;;;;5036321;28;20044;-60
2023/05/23 02:40:25;;;;;;;19.45;8.25;;;12.70;99.90;;;;;;5081652;28;20105;-60
2023/05/23 02:42:51;;;;;;;21.17;7.93;;;12.70;99.90;;;;;;5079645;28;20044;-61
2023/05/23 02:45:17;;;;;;;23.52;8.40;;;12.70;99.90;;;;;;5080980;28;20044;-60
2023/05/23 02:47:43;;;;;;;20.73;7.35;;;12.60;99.90;;;;;;5086438;28;20028;-61
2023/05/23 02:50:09;;;;;;;26.60;8.00;;;12.60;99.90;;;;;;5085694;28;20036;-60
2023/05/23 02:52:38;;;;;;;22.45;7.75;;;12.50;99.90;;;;;;5066547;28;20036;-60
2023/05/23 02:55:04;;;;;;;23.73;7.50;;;12.60;99.90;;;;;;5043406;28;20036;-60
2023/05/23 02:57:30;;;;;;;22.05;6.75;;;12.50;99.90;;;;;;5084775;28;20747;-60
2023/05/23 02:59:55;;;;;;;24.75;7.15;;;12.50;99.90;;;;;;5089071;28;20032;-60
2023/05/23 03:02:21;;;;;;;18.90;7.32;;;12.50;99.90;;;;;;5051868;28;20133;-60
2023/05/23 03:04:48;;;;;;;21.90;6.20;;;12.50;99.90;;;;;;5068808;28;20067;-58
2023/05/23 03:07:14;;;;;;;21.58;6.85;;;12.50;99.90;;;;;;5075199;28;20725;-61
2023/05/23 03:09:39;;;;;;;24.10;6.70;;;12.50;99.90;;;;;;5046580;28;20119;-61
2023/05/23 03:12:05;;;;;;;17.73;5.80;;;12.60;99.90;;;;;;5084646;28;20033;-60
2023/05/23 03:14:31;;;;;;;22.13;6.50;;;12.50;99.90;;;;;;5068995;28;20040;-60
2023/05/23 03:16:57;;;;;;;17.38;5.50;;;12.60;99.90;;;;;;5067354;28;20036;-60
2023/05/23 03:19:22;;;;;;;27.52;6.95;;;12.40;99.90;;;;;;5052111;28;20048;-61
2023/05/23 03:21:50;;;;;;;19.10;5.60;;;12.40;99.90;;;;;;5065417;28;20048;-60
2023/05/23 03:24:15;;;;;;;18.45;5.65;;;12.40;99.90;;;;;;5072256;28;20051;-61
2023/05/23 03:26:41;;;;;;;20.27;6.03;;;12.40;99.90;;;;;;5085961;28;20041;-60
2023/05/23 03:29:09;;;;;;;17.30;6.10;;;12.40;99.90;;;;;;5082736;28;20495;-60
2023/05/23 03:31:35;;;;;;;19.98;7.32;;;12.40;99.90;;;;;;5055083;28;20131;-60
2023/05/23 03:34:04;;;;;;;20.13;7.05;;;12.40;99.90;;;;;;5085404;28;20117;-60
2023/05/23 03:36:32;;;;;;;22.08;7.47;;;12.40;99.90;;;;;;5071015;28;20097;-60
2023/05/23 03:38:58;;;;;;;17.77;7.00;;;12.30;99.90;;;;;;5061706;28;20517;-60
2023/05/23 03:41:25;;;;;;;19.00;8.30;;;12.30;99.90;;;;;;5065779;28;20040;-60
2023/05/23 03:43:50;;;;;;;15.40;7.05;;;12.30;99.90;;;;;;5055651;28;20040;-60
2023/05/23 03:46:16;;;;;;;18.83;7.20;;;12.30;99.90;;;;;;5087927;28;20036;-60
2023/05/23 03:48:42;;;;;;;26.67;7.82;;;12.30;99.90;;;;;;5025704;28;20048;-60
2023/05/23 03:51:08;;;;;;;19.27;6.63;;;12.30;99.90;;;;;;5090747;28;20032;-61
2023/05/23 03:53:33;;;;;;;20.30;5.95;;;12.40;99.90;;;;;;5070219;28;20048;-60
2023/05/23 03:55:59;;;;;;;21.48;6.45;;;12.30;99.90;;;;;;5091231;28;20609;-60
2023/05/23 03:58:25;;;;;;;21.17;5.70;;;12.30;99.90;;;;;;5048444;28;20098;-60
2023/05/23 04:00:51;;;;;;;16.20;5.47;;;12.30;99.90;;;;;;5088597;28;20036;-60
2023/05/23 04:03:18;;;;;;;18.63;5.70;;;12.30;99.90;;;;;;5071251;28;20080;-61
2023/05/23 04:05:44;;;;;;;20.80;5.97;;;12.30;99.90;;;;;;5089357;28;20362;-60
2023/05/23 04:08:10;;;;;;;18.08;5.55;;;12.20;99.90;;;;;;5072397;28;20120;-60
2023/05/23 04:10:36;;;;;;;15.95;5.15;;;12.10;99.90;;;;;;5070475;28;20047;-60
2023/05/23 04:13:01;;;;;;;17.33;6.07;;;12.10;99.90;;;;;;5045946;28;20032;-60
2023/05/23 04:15:27;;;;;;;16.17;5.50;;;12.10;99.90;;;;;;5088879;28;20094;-60
2023/05/23 04:17:53;;;;;;;22.75;7.35;;;12.10;99.90;;;;;;5071518;28;20126;-61
2023/05/23 04:20:21;;;;;;;16.02;5.50;;;12.10;99.90;;;;;;5089630;28;20048;-60
2023/05/23 04:22:47;;;;;;;22.33;6.53;;;12.00;99.90;;;;;;5065026;28;20051;-60
2023/05/23 04:25:13;;;;;;;17.63;6.45;;;12.10;99.90;;;;;;5079093;28;20048;-60
2023/05/23 04:27:39;;;;;;;20.88;6.30;;;12.10;99.90;;;;;;5061143;28;20044;-60
2023/05/23 04:30:08;;;;;;;15.52;6.15;;;12.00;99.90;;;;;;5056020;28;20463;-60
2023/05/23 04:32:34;;;;;;;19.40;6.55;;;12.00;99.90;;;;;;5070171;28;20036;-60
2023/05/23 04:35:01;;;;;;;18.02;5.22;;;11.90;99.90;;;;;;5088389;28;20075;-60
2023/05/23 04:37:27;;;;;;;17.40;5.45;;;11.90;99.90;;;;;;5070708;28;20135;-60
2023/05/23 04:39:53;;;;;;;18.92;6.35;;;11.80;99.90;;;;;;5069146;28;20052;-60
2023/05/23 04:42:23;;;;;;;16.25;6.38;;;11.80;99.90;;;;;;5070301;28;20059;-60
2023/05/23 04:44:50;;;;;;;16.88;6.75;;;11.80;99.90;;;;;;5056955;28;20722;-61
2023/05/23 04:47:16;;;;;;;17.27;6.22;;;11.80;99.90;;;;;;5054397;28;20040;-60
2023/05/23 04:49:42;;;;;;;18.83;6.43;;;11.80;99.90;;;;;;5064074;28;20036;-60
2023/05/23 04:52:07;;;;;;;14.50;5.97;;;11.70;99.90;;;;;;5026478;28;20040;-60
2023/05/23 04:54:35;;;;;;;17.08;6.78;;;11.70;99.90;;;;;;5087268;28;20476;-61
2023/05/23 04:57:01;;;;;;;14.88;6.18;;;11.70;99.90;;;;;;5070723;28;20490;-60
2023/05/23 04:59:26;;;;;;;13.57;5.82;;;11.60;99.90;;;;;;5089274;28;20036;-60
2023/05/23 05:01:52;;;;;;;17.08;6.93;;;11.70;99.90;;;;;;5087803;28;20101;-61
2023/05/23 05:04:22;;;;;;;17.60;5.68;;;11.70;99.90;;;;;;5070695;28;20063;-61
2023/05/23 05:06:47;;;;;;;18.27;5.63;;;11.70;99.90;;;;;;5070092;28;20048;-60
2023/05/23 05:09:13;;;;;;;16.90;6.35;;;11.70;99.90;;;;;;5088352;28;20050;-60
2023/05/23 05:11:39;;;;;;;16.00;5.70;;;11.60;99.90;;;;;;5051192;28;20044;-60
2023/05/23 05:14:05;;;;;;;18.05;5.47;;;11.70;99.90;;;;;;5070231;28;20040;-60
2023/05/23 05:16:30;;;;;;;18.75;7.05;;;11.70;99.90;;;;;;5086992;28;20033;-60
2023/05/23 05:18:56;;;;;;;14.02;6.53;;;11.70;99.90;;;;;;5076888;28;20115;-60
2023/05/23 05:21:22;;;;;;;16.73;5.85;;;11.70;99.90;;;;;;5060093;28;20544;-60
2023/05/23 05:23:47;;;;;;;13.88;6.03;;;11.70;99.90;;;;;;5062799;28;20043;-60
2023/05/23 05:26:13;;;;;;;15.85;5.47;;;11.80;99.90;;;;;;5070443;28;20028;-60
2023/05/23 05:28:39;;;;;;;16.65;5.70;;;11.70;99.90;;;;;;5083959;28;20127;-60
2023/05/23 05:31:08;;;;;;;16.38;5.43;;;11.70;99.90;;;;;;5088218;28;20032;-60
2023/05/23 05:33:34;;;;;;;18.27;5.20;;;11.60;99.90;;;;;;5068945;28;20040;-60
2023/05/23 05:36:06;;;;;;;19.48;5.22;;;11.60;99.90;;;;;;5071093;28;20096;-60
2023/05/23 05:38:31;;;;;;;19.60;4.55;;;11.60;99.90;;;;;;5069295;28;20054;-60
2023/05/23 05:40:57;;;;;;;17.10;4.93;;;11.60;99.90;;;;;;5088165;28;20071;-60
2023/05/23 05:43:25;;;;;;;22.48;4.82;;;11.60;99.90;;;;;;5070180;28;20051;-62
2023/05/23 05:45:50;;;;;;;24.67;5.95;;;11.60;99.90;;;;;;5068202;28;20040;-61
2023/05/23 05:48:16;;;;;;;16.98;5.93;;;11.60;99.90;;;;;;5065976;28;20054;-61
2023/05/23 05:50:44;;;;;;;17.20;5.30;;;11.50;99.90;;;;;;5086944;28;20123;-61
2023/05/23 05:53:12;;;;;;;24.58;5.95;;;11.40;99.90;;;;;;5043219;28;20508;-60
2023/05/23 05:55:39;;;;;;;15.60;4.70;;;11.40;99.90;;;;;;5052414;28;20594;-60
2023/05/23 05:58:05;;;;;;;16.77;4.60;;;11.40;99.90;;;;;;5049994;28;20068;-63
2023/05/23 06:00:30;;;;;;;18.65;4.65;;;11.40;99.90;;;;;;5046080;28;20407;-61
2023/05/23 06:02:56;;;;;;;17.73;4.30;;;11.40;99.90;;;;;;5069659;28;20055;-61
2023/05/23 06:05:23;;;;;;;20.95;4.80;;;11.60;99.90;;;;;;5070234;28;20421;-60
2023/05/23 06:07:50;;;;;;;18.85;4.78;;;11.70;99.90;;;;;;5069094;28;20067;-59
2023/05/23 06:10:15;;;;;;;24.40;4.85;;;11.80;99.90;;;;;;5063608;28;20562;-61
2023/05/23 06:12:41;;;;;;;22.00;4.85;;;11.80;99.90;;;;;;5069180;28;20114;-62
2023/05/23 06:15:08;;;;;;;19.38;4.57;;;11.90;99.90;;;;;;5054557;28;20036;-63
2023/05/23 06:17:37;;;;;;;22.45;5.45;;;11.90;99.90;;;;;;5064358;28;20040;-61
2023/05/23 06:20:03;;;;;;;22.58;4.47;;;12.00;99.90;;;;;;5066760;28;20047;-60
2023/05/23 06:22:29;;;;;;;21.27;4.75;;;12.10;99.90;;;;;;5053890;28;20075;-60
2023/05/23 06:24:55;;;;;;;22.20;5.18;;;12.10;99.90;;;;;;5051682;28;20118;-62
2023/05/23 06:27:21;;;;;;;20.67;4.72;;;12.20;99.90;;;;;;5068808;28;20047;-64
2023/05/23 06:29:46;;;;;;;14.90;4.57;;;12.20;99.90;;;;;;5084359;28;20060;-62
2023/05/23 06:32:12;;;;;;;18.45;4.35;;;12.20;99.90;;;;;;5075872;28;20050;-60
2023/05/23 06:34:38;;;;;;;13.75;4.68;;;12.10;99.90;;;;;;5069102;28;20029;-62
2023/05/23 06:37:04;;;;;;;21.52;4.78;;;12.20;99.90;;;;;;5061643;28;20040;-62
2023/05/23 06:39:29;;;;;;;19.85;3.85;;;12.10;99.90;;;;;;5066898;28;20051;-61
2023/05/23 06:41:55;;;;;;;18.50;4.57;;;12.20;99.90;;;;;;5042704;28;20046;-65
2023/05/23 06:44:21;;;;;;;24.17;4.55;;;12.20;99.90;;;;;;5081687;28;20036;-64
2023/05/23 06:46:47;;;;;;;16.20;4.53;;;12.20;99.90;;;;;;5083386;28;20047;-62
2023/05/23 06:49:13;;;;;;;20.00;4.10;;;12.20;99.90;;;;;;5080816;28;20044;-61
2023/05/23 06:51:39;;;;;;;21.15;4.72;;;12.20;99.90;;;;;;5072067;28;20522;-61
2023/05/23 06:54:05;;;;;;;22.50;4.47;;;12.30;99.90;;;;;;5063587;28;20043;-64
2023/05/23 06:56:31;;;;;;;24.73;4.38;;;12.30;99.90;;;;;;5075984;28;20491;-64
2023/05/23 06:58:57;;;;;;;22.02;5.03;;;12.20;99.90;;;;;;5081532;28;20037;-65
2023/05/23 07:01:22;;;;;;;20.75;4.50;;;12.30;99.90;;;;;;5084518;28;20040;-62
2023/05/23 07:03:48;;;;;;;18.38;4.65;;;12.30;99.90;;;;;;5079677;28;20088;-62
2023/05/23 07:06:14;;;;;;;29.17;4.28;;;12.40;99.90;;;;;;5052283;28;20039;-61
2023/05/23 07:08:40;;;;;;;24.73;4.78;;;12.40;99.90;;;;;;5079834;28;20036;-62
2023/05/23 07:11:05;;;;;;;20.02;5.43;;;12.40;99.90;;;;;;5082694;28;20601;-62
2023/05/23 07:13:31;;;;;;;20.10;5.18;;;12.40;99.90;;;;;;5066871;28;20125;-64
2023/05/23 07:15:57;;;;;;;19.25;4.30;;;12.40;99.90;;;;;;5048460;28;20097;-63
2023/05/23 07:18:23;;;;;;;25.05;6.05;;;12.40;99.90;;;;;;5069310;28;20044;-62
2023/05/23 07:20:49;;;;;;;21.95;4.32;;;12.20;99.90;;;;;;5089735;28;20036;-63
2023/05/23 07:23:16;;;;;;;17.15;4.50;;;12.20;99.90;;;;;;5053961;28;20071;-62
2023/05/23 07:25:42;;;;;;;23.25;4.13;;;12.20;99.90;;;;;;5054908;28;20044;-61
2023/05/23 07:28:14;;;;;;;24.63;4.68;;;12.40;99.90;;;;;;5014326;28;20052;-65
2023/05/23 07:30:41;;;;;;;26.00;5.85;;;12.40;99.90;;;;;;5036791;28;20055;-61
2023/05/23 07:33:07;;;;;;;21.23;5.00;;;12.50;99.90;;;;;;5034152;28;20447;-62
2023/05/23 07:35:32;;;;;;;20.85;4.15;;;12.50;99.90;;;;;;5036726;28;20040;-62
2023/05/23 07:37:58;;;;;;;17.13;3.97;;;12.50;99.90;;;;;;5059697;28;20027;-61
2023/05/23 07:40:24;;;;;;;25.52;4.63;;;12.60;99.90;;;;;;5042732;28;20037;-62
2023/05/23 07:42:52;;;;;;;22.23;5.55;;;12.70;99.90;;;;;;5049459;28;20047;-64
2023/05/23 07:45:17;;;;;;;20.70;4.15;;;12.80;99.90;;;;;;5027746;28;20598;-62
2023/05/23 07:47:43;;;;;;;17.00;4.85;;;12.80;99.90;;;;;;5065413;28;20115;-62
2023/05/23 07:50:09;;;;;;;21.50;5.20;;;12.80;99.90;;;;;;5064252;28;20036;-62
2023/05/23 07:52:35;;;;;;;20.38;4.90;;;12.90;99.90;;;;;;5013114;28;20175;-61
2023/05/23 07:55:01;;;;;;;17.38;4.68;;;13.00;99.90;;;;;;5042685;28;20550;-62
2023/05/23 07:57:26;;;;;;;16.35;4.07;;;12.90;99.90;;;;;;5063524;28;20037;-63
2023/05/23 07:59:53;;;;;;;21.42;4.43;;;12.90;99.90;;;;;;5031416;28;20085;-63
2023/05/23 08:02:19;;;;;;;18.75;4.43;;;12.80;99.90;;;;;;5058673;28;20029;-61
2023/05/23 08:04:48;;;;;;;23.13;3.85;;;12.80;99.90;;;;;;5063295;28;20041;-63
2023/05/23 08:07:14;;;;;;;23.20;4.13;;;12.70;99.90;;;;;;5061034;28;20045;-62
2023/05/23 08:09:41;;;;;;;17.60;4.40;;;12.70;99.90;;;;;;5026656;28;20047;-62
2023/05/23 08:12:08;;;;;;;16.42;3.92;;;12.70;99.90;;;;;;5059148;28;20127;-64
2023/05/23 08:14:34;;;;;;;19.88;3.85;;;12.90;99.90;;;;;;5063475;28;20040;-62
2023/05/23 08:17:00;;;;;;;20.10;4.20;;;13.10;99.90;;;;;;5047063;28;20388;-61
2023/05/23 08:19:25;;;;;;;15.13;4.07;;;13.20;99.90;;;;;;5031319;28;20099;-62
2023/05/23 08:21:52;;;;;;;22.02;4.72;;;13.20;99.90;;;;;;5066029;28;20044;-61
2023/05/23 08:35:32;;;;;;;19.90;4.60;;;14.00;99.90;;;;;;5084739;28;20056;-61
2023/05/23 08:37:58;;;;;;;18.00;4.35;;;14.40;99.90;;;;;;5048344;28;20036;-64
2023/05/23 08:40:25;;;;;;;19.27;4.35;;;14.40;99.90;;;;;;5081221;28;20122;-64
2023/05/23 08:42:51;;;;;;;16.42;3.55;;;14.20;99.90;;;;;;5079400;28;20487;-63
2023/05/23 08:45:18;;;;;;;15.95;3.40;;;14.30;99.90;;;;;;5067384;28;20042;-64
2023/05/23 08:47:46;;;;;;;18.98;3.45;;;14.50;99.90;;;;;;5061236;28;20044;-62
2023/05/23 08:50:15;;;;;;;17.73;4.22;;;14.50;99.90;;;;;;5082995;28;20422;-63
2023/05/23 08:52:53;;;;;;;22.50;4.35;;;14.50;99.90;;;;;;5083177;28;20033;-65
2023/05/23 08:55:19;;;;;;;18.58;4.32;;;14.70;99.90;;;;;;5078701;28;20097;-62
2023/05/23 08:57:45;;;;;;;22.83;4.82;;;14.60;99.90;;;;;;5050805;28;20491;-61
2023/05/23 09:00:13;;;;;;;24.92;4.97;;;14.40;99.90;;;;;;5066885;28;20140;-62
2023/05/23 09:02:42;;;;;;;19.80;4.32;;;14.00;99.90;;;;;;5053465;28;20048;-59
2023/05/23 09:05:08;;;;;;;18.88;4.20;;;13.70;99.90;;;;;;5084908;28;20071;-67
2023/05/23 09:07:40;;;;;;;15.98;4.43;;;13.60;99.90;;;;;;5080116;28;20036;-61
2023/05/23 09:10:09;;;;;;;19.85;3.78;;;13.60;99.90;;;;;;5061556;28;20036;-61
2023/05/23 09:12:38;;;;;;;19.58;3.67;;;13.60;99.90;;;;;;5038896;28;20539;-63
2023/05/23 09:15:06;;;;;;;20.42;3.88;;;13.70;99.90;;;;;;5059417;28;20043;-64
2023/05/23 09:17:32;;;;;;;17.02;3.72;;;13.70;99.90;;;;;;5062626;28;20044;-64
2023/05/23 09:19:59;;;;;;;17.30;4.75;;;13.60;99.90;;;;;;5062573;28;20044;-61
2023/05/23 09:22:26;;;;;;;19.15;4.40;;;13.70;99.90;;;;;;5063201;28;20040;-63
2023/05/23 09:24:53;;;;;;;23.45;4.30;;;13.90;99.90;;;;;;5087534;28;20032;-63
2023/05/23 09:27:19;;;;;;;13.60;4.15;;;14.00;99.90;;;;;;5061853;28;20044;-63
2023/05/23 09:29:46;;;;;;;25.55;6.13;;;14.00;99.90;;;;;;5062603;28;20493;-65
2023/05/23 09:32:18;;;;;;;21.33;4.00;;;14.10;99.90;;;;;;5080067;28;20036;-64
2023/05/23 09:34:58;;;;;;;12.43;3.33;;;14.10;99.90;;;;;;5064801;28;20155;-64
2023/05/23 09:37:30;;;;;;;17.90;3.88;;;14.20;99.90;;;;;;5058218;28;20324;-64
2023/05/23 09:39:57;;;;;;;16.13;3.42;;;14.40;99.90;;;;;;5053507;28;20063;-64
2023/05/23 09:42:23;;;;;;;25.50;4.43;;;14.50;99.90;;;;;;5060109;28;20550;-64
2023/05/23 09:44:49;;;;;;;12.88;3.38;;;14.70;99.90;;;;;;5045166;28;20040;-63
2023/05/23 09:47:16;;;;;;;14.90;3.50;;;15.00;99.90;;;;;;5062992;28;20483;-62
2023/05/23 09:49:45;;;;;;;14.93;4.32;;;15.00;99.90;;;;;;5061613;28;20245;-63
2023/05/23 09:52:12;;;;;;;29.13;4.85;;;15.10;99.90;;;;;;5043927;28;20084;-62
2023/05/23 09:54:39;;;;;;;18.63;3.80;;;14.80;99.90;;;;;;5080886;28;20040;-65
2023/05/23 09:57:09;;;;;;;21.67;3.28;;;14.90;99.90;;;;;;5059923;28;20067;-62
2023/05/23 09:59:41;;;;;;;14.52;3.38;;;14.90;99.90;;;;;;5063730;28;20047;-63
2023/05/23 10:02:11;;;;;;;15.80;3.60;;;15.10;99.90;;;;;;5061213;28;20071;-62
2023/05/23 10:04:39;;;;;;;14.93;3.55;;;15.20;99.90;;;;;;5057888;28;20044;-64
2023/05/23 10:07:19;;;;;;;13.38;3.20;;;15.10;99.90;;;;;;5081197;28;20048;-67
2023/05/23 10:09:53;;;;;;;18.67;4.35;;;15.00;99.90;;;;;;5065110;28;20048;-62
2023/05/23 10:12:21;;;;;;;15.40;3.80;;;14.80;99.90;;;;;;5083257;28;20039;-62
2023/05/23 10:14:53;;;;;;;19.15;4.38;;;14.70;99.90;;;;;;5045227;28;20131;-67
2023/05/23 10:17:52;;;;;;;22.92;5.18;;;14.40;99.90;;;;;;5057938;28;20131;-63
2023/05/23 10:20:23;;;;;;;23.27;4.47;;;14.30;99.90;;;;;;5063832;28;20055;-62
2023/05/23 10:22:49;;;;;;;21.77;5.03;;;14.30;99.90;;;;;;5065275;28;20123;-67
2023/05/23 10:25:16;;;;;;;19.10;3.97;;;14.40;99.90;;;;;;5065879;28;20090;-62
2023/05/23 10:27:42;;;;;;;15.27;3.33;;;14.70;99.90;;;;;;5063811;28;20145;-62
2023/05/23 10:30:08;;;;;;;17.38;3.78;;;15.00;99.90;;;;;;5066197;28;20040;-63
2023/05/23 10:32:37;;;;;;;13.93;3.50;;;15.30;99.90;;;;;;5067081;28;20403;-61
2023/05/23 10:35:31;;;;;;;19.23;4.68;;;15.40;99.90;;;;;;5063854;28;20173;-65
2023/05/23 10:38:03;;;;;;;20.95;4.28;;;15.10;99.90;;;;;;5069958;28;20067;-63
2023/05/23 10:40:52;;;;;;;15.75;3.45;;;14.70;99.50;;;;;;5040553;28;20045;-63
2023/05/23 10:43:30;;;;;;;14.27;3.47;;;14.70;99.90;;;;;;5035432;28;20040;-64
2023/05/23 10:45:56;;;;;;;15.55;3.78;;;14.70;99.90;;;;;;5050450;28;20040;-63
2023/05/23 10:48:33;;;;;;;15.07;4.00;;;14.70;99.90;;;;;;5065699;28;20113;-64
2023/05/23 10:51:07;;;;;;;15.05;3.65;;;14.70;99.90;;;;;;5064834;28;20040;-68
2023/05/23 10:53:39;;;;;;;17.10;3.50;;;14.80;99.90;;;;;;5044571;28;20402;-64
2023/05/23 10:56:06;;;;;;;13.95;3.42;;;14.90;99.90;;;;;;5082933;28;20410;-63
2023/05/23 10:58:38;;;;;;;21.63;4.93;;;14.90;99.90;;;;;;5063327;28;20584;-66
2023/05/23 11:01:08;;;;;;;16.52;3.60;;;14.80;99.90;;;;;;5077742;28;20097;-64
2023/05/23 11:03:35;;;;;;;17.60;3.38;;;14.70;99.90;;;;;;5065393;28;20123;-61
2023/05/23 11:06:02;;;;;;;15.02;3.95;;;14.90;99.90;;;;;;5078646;28;21026;-63
2023/05/23 11:08:36;;;;;;;11.90;3.22;;;15.10;99.90;;;;;;5063683;28;20052;-60
2023/05/23 11:11:04;;;;;;;14.80;3.20;;;15.50;99.90;;;;;;5055825;28;20040;-64
2023/05/23 11:13:51;;;;;;;16.02;2.97;;;15.80;99.90;;;;;;5061824;28;20106;-63
2023/05/23 11:16:27;;;;;;;13.00;3.47;;;15.80;98.50;;;;;;5079201;28;20425;-63
2023/05/23 11:19:18;;;;;;;13.80;3.25;;;15.80;98.90;;;;;;5061327;28;20063;-62
2023/05/23 11:21:47;;;;;;;17.10;2.83;;;15.50;97.90;;;;;;5050671;28;20033;-66
2023/05/23 11:24:13;;;;;;;17.10;4.05;;;15.20;98.20;;;;;;5060166;28;20052;-63
2023/05/23 11:27:00;;;;;;;14.70;3.83;;;14.90;98.50;;;;;;5056930;28;20040;-63
2023/05/23 11:29:27;;;;;;;14.38;3.85;;;15.20;99.40;;;;;;5074633;28;20511;-65
2023/05/23 11:31:56;;;;;;;13.13;2.92;;;15.40;99.50;;;;;;5080865;28;20068;-63
2023/05/23 11:34:25;;;;;;;15.30;3.38;;;15.20;98.60;;;;;;5084597;28;20128;-64
2023/05/23 11:36:55;;;;;;;14.05;3.83;;;15.20;99.40;;;;;;5052393;28;20044;-63
2023/05/23 11:39:22;;;;;;;14.02;3.33;;;15.50;99.40;;;;;;5075991;28;20074;-66
2023/05/23 11:42:03;;;;;;;15.77;2.97;;;15.50;98.90;;;;;;5065863;28;20048;-63
2023/05/23 11:44:29;;;;;;;12.85;3.72;;;15.60;99.40;;;;;;5055664;28;20032;-63
2023/05/23 11:47:05;;;;;;;15.68;3.45;;;15.80;99.30;;;;;;5071797;28;20040;-64
2023/05/23 11:49:37;;;;;;;17.83;3.47;;;16.00;99.20;;;;;;5072785;28;20559;-66
2023/05/23 11:52:03;;;;;;;21.20;4.07;;;15.70;98.90;;;;;;5089407;28;20028;-65
2023/05/23 11:54:29;;;;;;;18.55;3.78;;;15.40;99.20;;;;;;5068699;28;20089;-63
2023/05/23 11:56:56;;;;;;;23.45;4.75;;;15.70;99.90;;;;;;5069155;28;20513;-65
2023/05/23 11:59:25;;;;;;;17.90;4.22;;;15.80;99.90;;;;;;5067706;28;20036;-64
2023/05/23 12:01:51;;;;;;;17.17;3.83;;;15.60;99.90;;;;;;5058781;28;20474;-67
2023/05/23 12:04:17;;;;;;;15.18;3.65;;;15.60;99.90;;;;;;5071868;28;20040;-66
2023/05/23 12:06:49;;;;;;;14.38;3.38;;;15.70;99.90;;;;;;5060279;28;20098;-63
2023/05/23 12:09:15;;;;;;;17.65;3.80;;;15.70;99.30;;;;;;5067473;28;20036;-63
2023/05/23 12:11:43;;;;;;;16.35;3.92;;;15.70;99.00;;;;;;5059783;28;20066;-62
2023/05/23 12:14:12;;;;;;;15.05;3.72;;;15.40;99.30;;;;;;5063298;28;20032;-62
2023/05/23 12:16:39;;;;;;;12.52;2.95;;;15.30;99.40;;;;;;5061923;28;20039;-68
2023/05/23 12:19:05;;;;;;;16.23;2.97;;;15.60;99.20;;;;;;5047963;28;20093;-64
2023/05/23 12:21:45;;;;;;;14.60;3.25;;;15.40;98.40;;;;;;5082415;28;20064;-62
2023/05/23 12:24:16;;;;;;;12.02;3.60;;;15.60;98.70;;;;;;5060963;28;20044;-65
2023/05/23 12:26:52;;;;;;;10.15;2.92;;;15.70;99.10;;;;;;5053259;28;20058;-65
2023/05/23 12:29:31;;;;;;;15.50;4.18;;;15.60;98.30;;;;;;5079167;28;20051;-64
2023/05/23 12:31:58;;;;;;;10.18;2.65;;;15.70;98.20;;;;;;5061170;28;20040;-64
2023/05/23 12:34:24;;;;;;;14.10;3.33;;;15.80;98.60;;;;;;5066778;28;20039;-63
2023/05/23 12:36:57;;;;;;;10.85;2.80;;;15.90;97.10;;;;;;5047596;28;20044;-68
2023/05/23 12:39:27;;;;;;;14.25;3.05;;;15.90;97.00;;;;;;5078441;28;20039;-64
2023/05/23 12:41:57;;;;;;;15.63;3.60;;;15.70;97.40;;;;;;5048730;28;20388;-62
2023/05/23 12:44:28;;;;;;;11.40;3.33;;;15.80;97.30;;;;;;5081182;28;20042;-63
2023/05/23 12:46:54;;;;;;;12.40;2.90;;;15.90;97.10;;;;;;5049450;28;20044;-64
2023/05/23 12:49:20;;;;;;;14.70;3.50;;;16.20;97.40;;;;;;5045424;28;20048;-65
2023/05/23 12:51:49;;;;;;;12.13;2.88;;;16.00;96.70;;;;;;5064597;28;20036;-62